Juneau, AK

1:25 PM AKDT on August 27, 2014 (GMT -0800)
MISC Lemon Creek (Juneau), AK FAA | Change Station
CLOSE
Current Station
Personal Weather Station
Location: Juneau, AK
Elevation: 16 ft
Nearby Weather Stations

Elev 16 ft 58.36 °N, 134.51 °W | Updated 35 minutes ago

Overcast
Overcast
56 °F
Feels Like 56 °F
N
2
Wind Variable Wind from SSE
Gusts 7.0 mph

Today
High -- | Low -- °F
--% Chance of Precip.
Yesterday
High -- | Low -- °F
Precip. -- in
5:46 AM 8:10 PM
Waxing Crescent, 5% visible
Pressure 30.09 in
Visibility 10.0 miles
Clouds Few 1700 ft
Mostly Cloudy 3300 ft
Overcast 5500 ft
Dew Point 56 °F
Humidity 100%
Rainfall -999.00 in
Snow Depth Not available.
UV 2 out of 12
Pollen Not available.
Air Quality Not available.
Flu Activity Not available.
METAR PAJN 272053Z 07007KT 10SM FEW017 BKN033 OVC055 13/11 A3009 RMK AO2 SLP190 PRESENT WX VCSH E 60000 T01330111 53003

More Conditions Fewer Conditions

Pressure 30.09 in
Visibility 10.0 miles
Clouds Few 1700 ft
Mostly Cloudy 3300 ft
Overcast 5500 ft
Dew Point 56 °F
Humidity 100%
Rainfall -999.00 in
Snow Depth Not available.
UV 2 out of 12
Pollen Not available.
Air Quality Not available.
Flu Activity Not available.
METAR PAJN 272053Z 07007KT 10SM FEW017 BKN033 OVC055 13/11 A3009 RMK AO2 SLP190 PRESENT WX VCSH E 60000 T01330111 53003

More Conditions Fewer Conditions

10-Day Weather Forecast

Almanac

Astronomy

Aug. 27, 2014 Rise Set
Actual Time 5:46 AM AKDT 8:10 PM AKDT
Civil Twilight 5:02 AM AKDT 8:54 PM AKDT
Nautical Twilight 4:05 AM AKDT 9:50 PM AKDT
Astronomical Twilight 2:50 AM AKDT 11:03 PM AKDT
Moon 8:26 AM AKDT 8:24 PM AKDT
Length of Visible Light 15h 51m
Length of Day
14h 24m
Tomorrow will be 4m 58s shorter.
Waxing Crescent, 5% of the Moon is Illuminated
Today
Waxing Crescent
Sep 2
First Quarter
Sep 8
Full
Sep 15
Last Quarter
Sep 24
New

Today's Extremes

State Highs State Lows

Community

WunderPhotos

Upload Photos

1,747,791 photos uploaded!

Nearby

Snow Depth

Station Depth Elevation
Long Lake 0 in 820 ft
Upper Tsaina River 0 in 1750 ft
Moraine 0 in 2100 ft
Granite Creek 0 in 1240 ft
Grandview 21 in 1100 ft

Earthquake Activity

City Distance Mag. Time & Date
No recent earthquake activity has been reported nearby.
Minimum magnitude displayed is 2.5.

Coastal Water Temperatures

Place Temperature
No Stations Reporting

Nearby Weather Stations